Time;durP1;ratioP1;P1;durP2;ratioP2;P2;SDS_P1;SDS_P2;PMS_P1;PMS_P2;Temp;Humidity;BMP_temperature;BMP_pressure;BME280_temperature;BME280_humidity;BME280_pressure;Samples;Min_cycle;Max_cycle;Signal;HPM_P1;HPM_P2
2022/08/02 00:02:03;;;;;;;4.00;1.67;;;;;;;25.73;45.05;101430.91;5032953;27;98638;-68
2022/08/02 00:04:29;;;;;;;3.83;1.63;;;;;;;25.59;45.30;101435.84;5031790;28;96844;-68
2022/08/02 00:06:56;;;;;;;4.50;2.40;;;;;;;25.77;44.78;101442.34;5031656;27;98376;-67
2022/08/02 00:09:22;;;;;;;2.47;1.00;;;;;;;25.97;43.34;101443.28;5030647;27;99508;-69
2022/08/02 00:11:50;;;;;;;2.83;1.33;;;;;;;25.98;43.21;101445.00;5032173;27;99374;-68
2022/08/02 00:14:17;;;;;;;6.05;1.95;;;;;;;25.82;42.50;101445.50;5031061;28;96879;-69
2022/08/02 00:16:43;;;;;;;4.25;1.55;;;;;;;25.96;42.46;101450.56;5030972;28;97467;-69
2022/08/02 00:19:10;;;;;;;5.60;1.45;;;;;;;25.91;42.54;101454.66;5031423;27;98840;-69
2022/08/02 00:21:36;;;;;;;2.90;1.38;;;;;;;26.03;41.62;101451.72;5031766;28;99559;-69
2022/08/02 00:24:03;;;;;;;4.47;1.60;;;;;;;26.03;41.21;101442.75;5032588;28;96775;-68
2022/08/02 00:26:29;;;;;;;2.58;1.10;;;;;;;25.98;41.79;101435.03;5030463;28;97241;-68
2022/08/02 00:28:57;;;;;;;7.85;1.67;;;;;;;26.12;41.42;101447.34;5032365;27;98923;-69
2022/08/02 00:31:23;;;;;;;5.75;1.48;;;;;;;26.01;41.62;101437.44;5029987;28;98975;-68
2022/08/02 00:33:50;;;;;;;5.10;1.50;;;;;;;26.03;41.85;101431.91;5034375;28;96894;-70
2022/08/02 00:36:16;;;;;;;5.35;1.17;;;;;;;26.06;41.69;101439.75;5030742;28;97009;-69
2022/08/02 00:38:43;;;;;;;6.30;1.92;;;;;;;26.10;41.59;101433.06;5033345;28;100840;-69
2022/08/02 00:41:15;;;;;;;4.50;1.23;;;;;;;26.06;41.19;101437.91;5032039;27;98910;-69
2022/08/02 00:43:42;;;;;;;5.22;1.30;;;;;;;25.97;41.49;101432.47;5033242;28;97186;-70
2022/08/02 00:46:10;;;;;;;14.40;1.77;;;;;;;25.95;40.75;101437.16;5029658;28;99225;-69
2022/08/02 00:48:36;;;;;;;4.20;1.45;;;;;;;25.98;41.06;101436.88;5031649;28;98835;-69
2022/08/02 00:51:03;;;;;;;4.47;1.55;;;;;;;25.94;41.13;101439.00;5032546;28;99197;-69
2022/08/02 00:53:30;;;;;;;5.50;1.23;;;;;;;25.74;40.62;101443.47;5032416;28;97092;-68
2022/08/02 00:55:57;;;;;;;5.00;1.27;;;;;;;25.83;40.34;101432.81;5031630;28;97601;-69
2022/08/02 00:58:23;;;;;;;6.85;1.30;;;;;;;25.83;40.15;101441.81;5029173;28;99392;-68
2022/08/02 01:00:50;;;;;;;5.00;1.30;;;;;;;25.79;40.20;101446.66;5031884;28;98961;-68
2022/08/02 01:03:17;;;;;;;6.63;1.45;;;;;;;25.84;40.12;101440.81;5033958;27;96846;-68
2022/08/02 01:05:44;;;;;;;4.50;1.27;;;;;;;25.78;40.30;101438.66;5031112;28;98485;-68
2022/08/02 01:08:10;;;;;;;4.38;1.30;;;;;;;25.79;39.95;101448.50;5031172;27;99279;-69
2022/08/02 01:10:37;;;;;;;4.47;1.50;;;;;;;25.76;40.02;101448.75;5030093;28;98783;-68
2022/08/02 01:13:03;;;;;;;5.65;1.70;;;;;;;25.81;40.13;101454.63;5032470;27;96861;-68
2022/08/02 01:15:30;;;;;;;4.60;1.30;;;;;;;25.58;39.92;101453.94;5030711;28;96890;-68
2022/08/02 01:18:02;;;;;;;5.53;1.20;;;;;;;25.65;39.93;101448.84;5029930;28;103232;-68
2022/08/02 01:20:48;;;;;;;5.28;1.42;;;;;;;25.50;40.37;101445.59;5030587;28;98917;-68
2022/08/02 01:23:32;;;;;;;5.60;1.20;;;;;;;25.61;40.09;101453.66;5033322;28;96828;-68
2022/08/02 01:26:17;;;;;;;5.57;1.38;;;;;;;25.46;40.37;101456.81;5030097;28;96856;-68
2022/08/02 01:28:49;;;;;;;4.88;1.20;;;;;;;25.69;39.72;101453.84;5030809;28;98992;-68
2022/08/02 01:31:21;;;;;;;4.20;1.35;;;;;;;25.63;39.75;101451.69;5032125;27;99095;-68
2022/08/02 01:33:56;;;;;;;4.70;1.25;;;;;;;25.57;40.10;101456.75;5030444;28;97744;-68
2022/08/02 01:36:26;;;;;;;5.47;1.40;;;;;;;25.52;40.04;101454.44;5031459;28;97405;-70
2022/08/02 01:38:55;;;;;;;8.30;1.65;;;;;;;25.72;39.82;101460.84;5032275;28;98872;-70
2022/08/02 01:41:25;;;;;;;6.47;1.30;;;;;;;25.74;39.29;101457.00;5029089;27;99220;-69
2022/08/02 01:43:56;;;;;;;8.10;1.63;;;;;;;25.67;39.29;101469.34;5032745;27;96784;-71
2022/08/02 01:46:25;;;;;;;10.43;1.70;;;;;;;25.72;39.40;101467.13;5028408;28;96732;-70
2022/08/02 01:48:54;;;;;;;6.75;1.50;;;;;;;25.69;39.17;101461.97;5030555;27;98957;-70
2022/08/02 01:52:20;;;;;;;6.35;1.33;;;;;;;25.61;39.27;101461.78;5030348;28;99050;-70
2022/08/02 01:54:12;;;;;;;6.70;1.70;;;;;;;25.61;39.41;101461.78;5030347;27;96859;-70
2022/08/02 01:56:40;;;;;;;6.07;1.33;;;;;;;25.31;39.72;101462.56;5029890;28;96824;-69
2022/08/02 01:59:11;;;;;;;7.88;1.77;;;;;;;25.49;39.07;101465.53;5030420;27;98917;-70
2022/08/02 02:01:39;;;;;;;8.27;1.33;;;;;;;25.49;38.88;101457.41;5030992;28;98840;-70
2022/08/02 02:04:07;;;;;;;6.97;1.40;;;;;;;25.47;39.08;101462.09;5032380;27;96886;-69
2022/08/02 02:06:34;;;;;;;10.30;1.70;;;;;;;25.39;39.23;101465.47;5028568;28;97141;-69
2022/08/02 02:09:02;;;;;;;3.30;1.20;;;;;;;25.49;39.06;101460.09;5031739;27;99292;-68
2022/08/02 02:11:29;;;;;;;9.05;1.67;;;;;;;25.48;38.33;101460.25;5029068;28;99153;-69
2022/08/02 02:13:58;;;;;;;12.63;1.65;;;;;;;25.37;38.76;101466.59;5030608;27;97088;-68
2022/08/02 02:16:27;;;;;;;4.95;1.55;;;;;;;25.40;38.32;101469.88;5029744;28;97300;-68
2022/08/02 02:18:54;;;;;;;6.55;1.67;;;;;;;25.38;39.14;101460.19;5028343;28;99382;-69
2022/08/02 02:21:23;;;;;;;5.70;1.80;;;;;;;25.41;38.14;101451.78;5030072;27;99025;-68
2022/08/02 02:23:49;;;;;;;9.48;1.50;;;;;;;25.44;38.28;101456.97;5031517;27;97159;-68
2022/08/02 02:26:17;;;;;;;5.97;1.30;;;;;;;25.37;38.20;101461.19;5029705;27;97177;-69
2022/08/02 02:28:47;;;;;;;6.80;1.45;;;;;;;25.38;38.25;101469.16;5030364;27;99439;-69
2022/08/02 02:31:17;;;;;;;12.13;1.95;;;;;;;25.33;37.90;101462.44;5030935;28;97628;-68
2022/08/02 02:33:49;;;;;;;11.80;1.77;;;;;;;25.50;38.46;101456.41;5030392;28;96884;-69
2022/08/02 02:36:17;;;;;;;7.97;1.58;;;;;;;25.55;38.14;101464.13;5029530;27;97116;-68
2022/08/02 02:38:45;;;;;;;8.23;1.38;;;;;;;25.52;38.00;101461.72;5031594;28;99154;-69
2022/08/02 02:41:13;;;;;;;6.70;1.60;;;;;;;25.43;38.17;101463.34;5030423;28;99093;-68
2022/08/02 02:43:41;;;;;;;10.52;1.77;;;;;;;25.57;37.12;101463.06;5031193;28;97691;-69
2022/08/02 02:46:09;;;;;;;3.60;1.20;;;;;;;25.49;37.08;101460.09;5033487;28;96926;-69
2022/08/02 02:48:37;;;;;;;11.75;2.05;;;;;;;25.60;37.06;101462.75;5029509;27;99024;-68
2022/08/02 02:51:06;;;;;;;7.47;2.42;;;;;;;25.54;36.85;101463.25;5030900;27;98950;-68
2022/08/02 02:53:33;;;;;;;5.53;1.30;;;;;;;25.44;36.74;101462.38;5029601;28;97645;-68
2022/08/02 02:56:00;;;;;;;8.20;1.77;;;;;;;25.41;35.96;101468.88;5029728;28;96955;-69
2022/08/02 02:58:27;;;;;;;5.93;1.33;;;;;;;25.36;35.44;101467.56;5028639;28;98971;-69
2022/08/02 03:03:38;;;;;;;5.95;1.20;;;;;;;25.10;35.64;101477.06;5031483;28;96843;-68
2022/08/02 03:06:06;;;;;;;6.60;1.70;;;;;;;24.91;36.54;101470.50;5029856;27;97163;-68
2022/08/02 03:08:33;;;;;;;8.50;1.63;;;;;;;24.82;36.88;101476.66;5027297;27;98978;-69
2022/08/02 03:11:00;;;;;;;6.40;1.38;;;;;;;24.85;37.17;101481.81;5029813;28;97670;-69
2022/08/02 03:13:26;;;;;;;8.25;1.48;;;;;;;24.63;37.81;101484.56;5030574;28;98620;-69
2022/08/02 03:15:53;;;;;;;10.57;2.90;;;;;;;24.62;37.57;101485.56;5029925;27;97221;-69
2022/08/02 03:18:33;;;;;;;6.65;1.40;;;;;;;24.55;38.32;101484.34;5026466;28;99043;-69
2022/08/02 03:21:01;;;;;;;10.43;2.95;;;;;;;24.56;38.70;101486.94;5027847;27;99177;-69
2022/08/02 03:23:29;;;;;;;6.10;2.45;;;;;;;24.78;38.92;101486.00;5030922;28;98162;-69
2022/08/02 03:25:55;;;;;;;8.55;2.17;;;;;;;24.70;39.83;101483.09;5028154;28;97313;-69
2022/08/02 03:28:22;;;;;;;7.95;2.25;;;;;;;24.67;40.66;101488.75;5029349;27;98831;-69
2022/08/02 03:30:48;;;;;;;6.30;1.98;;;;;;;24.56;41.70;101483.34;5030967;27;99098;-69
2022/08/02 03:33:15;;;;;;;5.45;2.03;;;;;;;24.56;42.15;101494.16;5029571;28;97084;-68
2022/08/02 03:35:42;;;;;;;5.25;1.75;;;;;;;24.18;43.45;101497.25;5030078;28;96935;-69
2022/08/02 03:38:10;;;;;;;8.30;2.25;;;;;;;24.39;43.13;101492.00;5028520;28;99091;-68
2022/08/02 03:40:38;;;;;;;8.48;2.70;;;;;;;24.06;43.86;101491.03;5030312;28;98960;-70
2022/08/02 03:43:06;;;;;;;8.75;1.70;;;;;;;23.68;44.72;101498.59;5030431;27;97666;-68
2022/08/02 03:45:33;;;;;;;7.15;1.90;;;;;;;23.17;46.24;101493.53;5028618;28;98044;-69
2022/08/02 03:48:00;;;;;;;8.07;2.22;;;;;;;23.12;46.68;101503.81;5026868;27;99095;-69
2022/08/02 03:50:26;;;;;;;4.22;1.80;;;;;;;23.48;45.74;101502.00;5031218;28;99074;-69
2022/08/02 03:52:53;;;;;;;13.57;2.00;;;;;;;23.60;45.64;101504.59;5029989;27;96800;-69
2022/08/02 03:55:19;;;;;;;7.45;1.95;;;;;;;23.79;45.03;101506.72;5029294;28;96868;-69
2022/08/02 03:57:48;;;;;;;5.15;2.35;;;;;;;23.94;44.69;101510.91;5027263;27;99061;-68
2022/08/02 04:00:18;;;;;;;5.68;2.22;;;;;;;23.62;45.17;101510.75;5029901;28;97566;-68
2022/08/02 04:02:45;;;;;;;5.43;2.08;;;;;;;23.81;44.50;101504.75;5029337;28;97490;-68
2022/08/02 04:05:11;;;;;;;11.65;2.35;;;;;;;23.56;44.99;101507.66;5029787;27;96891;-68
2022/08/02 04:07:37;;;;;;;10.18;2.50;;;;;;;23.90;44.53;101511.25;5028496;28;99174;-68
2022/08/02 04:10:04;;;;;;;8.05;2.13;;;;;;;23.97;44.38;101505.25;5028942;27;99883;-68
2022/08/02 04:12:31;;;;;;;7.43;2.38;;;;;;;24.05;44.20;101513.59;5029105;28;97167;-68
2022/08/02 04:14:59;;;;;;;14.35;3.05;;;;;;;24.28;43.78;101514.50;5029697;27;96776;-68
2022/08/02 04:17:31;;;;;;;6.57;2.42;;;;;;;24.20;43.73;101520.50;5023447;28;98931;-68
2022/08/02 04:20:03;;;;;;;9.57;2.78;;;;;;;24.30;43.57;101525.16;5027967;28;98984;-68
2022/08/02 04:22:34;;;;;;;10.23;3.35;;;;;;;24.30;43.64;101526.00;5029392;28;96916;-69
2022/08/02 04:25:05;;;;;;;8.13;2.67;;;;;;;24.36;43.72;101530.06;5029056;27;97146;-69
2022/08/02 04:27:31;;;;;;;15.68;3.88;;;;;;;24.16;44.33;101531.63;5026868;28;99183;-69
2022/08/02 04:30:00;;;;;;;15.43;4.95;;;;;;;23.62;45.73;101526.94;5029421;27;99100;-69
2022/08/02 04:32:27;;;;;;;12.10;4.53;;;;;;;23.91;45.00;101531.84;5028752;28;97760;-69
2022/08/02 04:34:54;;;;;;;17.73;5.00;;;;;;;23.90;45.06;101533.69;5028203;28;96872;-69
2022/08/02 04:37:21;;;;;;;14.20;4.28;;;;;;;23.83;45.34;101538.72;5026776;28;99165;-70
2022/08/02 04:39:47;;;;;;;13.07;4.18;;;;;;;23.93;45.59;101535.31;5029210;28;98159;-70
2022/08/02 04:42:20;;;;;;;8.50;3.45;;;;;;;23.85;46.10;101541.31;5029218;27;98649;-70
2022/08/02 04:44:46;;;;;;;9.73;2.80;;;;;;;23.84;45.99;101539.56;5030420;27;96853;-70
2022/08/02 04:47:15;;;;;;;8.70;3.17;;;;;;;23.85;46.04;101538.59;5027658;27;99218;-70
2022/08/02 04:49:41;;;;;;;8.70;2.58;;;;;;;23.94;45.69;101537.03;5031853;27;99035;-69
2022/08/02 04:52:07;;;;;;;6.15;3.03;;;;;;;23.97;45.57;101542.16;5032442;27;97930;-69
2022/08/02 04:54:34;;;;;;;14.98;3.22;;;;;;;23.69;46.08;101540.81;5033408;27;96850;-69
2022/08/02 04:57:00;;;;;;;8.32;2.67;;;;;;;23.69;46.24;101538.09;5029284;27;99233;-69
2022/08/02 04:59:26;;;;;;;9.80;2.33;;;;;;;23.76;46.00;101536.66;5031119;28;100706;-69
2022/08/02 05:01:53;;;;;;;9.15;2.60;;;;;;;23.44;46.27;101542.66;5028662;27;97948;-69
2022/08/02 05:04:20;;;;;;;15.38;3.33;;;;;;;23.71;46.03;101544.22;5031954;27;98985;-69
2022/08/02 05:06:47;;;;;;;15.43;2.88;;;;;;;23.89;45.51;101550.91;5030365;27;98860;-70
2022/08/02 05:09:13;;;;;;;8.10;2.47;;;;;;;23.76;45.27;101545.56;5031758;27;98843;-69
2022/08/02 05:11:39;;;;;;;11.13;2.85;;;;;;;23.85;45.23;101544.00;5029821;28;98561;-70
2022/08/02 05:14:06;;;;;;;6.13;2.08;;;;;;;23.78;45.20;101546.31;5031682;27;98665;-70
2022/08/02 05:16:32;;;;;;;8.88;3.00;;;;;;;23.95;44.90;101544.16;5026109;27;99127;-69
2022/08/02 05:18:59;;;;;;;14.30;2.60;;;;;;;23.75;44.09;101543.88;5030803;27;98819;-70
2022/08/02 05:21:27;;;;;;;10.73;2.58;;;;;;;24.03;44.14;101542.53;5031129;28;97111;-69
2022/08/02 05:23:53;;;;;;;6.20;2.38;;;;;;;24.47;42.91;101535.47;5026780;28;96868;-69
2022/08/02 05:26:19;;;;;;;10.43;2.50;;;;;;;24.80;42.09;101546.22;5029177;28;98180;-70
2022/08/02 05:28:46;;;;;;;12.20;2.65;;;;;;;24.94;41.16;101551.34;5030569;28;99685;-69
2022/08/02 05:31:12;;;;;;;12.57;3.28;;;;;;;25.17;40.50;101549.44;5028882;27;97684;-69
2022/08/02 05:33:38;;;;;;;11.85;4.03;;;;;;;25.20;39.23;101554.59;5031432;28;97307;-69
2022/08/02 05:36:05;;;;;;;14.63;3.65;;;;;;;25.28;39.08;101557.50;5025791;27;98966;-69
2022/08/02 05:38:33;;;;;;;26.83;6.40;;;;;;;25.51;38.78;101563.66;5027186;28;99131;-69
2022/08/02 05:40:59;;;;;;;10.70;3.63;;;;;;;24.92;40.20;101569.56;5030760;27;98948;-69
2022/08/02 05:43:26;;;;;;;12.23;3.13;;;;;;;25.17;40.12;101572.91;5032047;27;97094;-69
2022/08/02 05:45:53;;;;;;;10.80;2.78;;;;;;;25.27;39.43;101576.59;5029035;27;99117;-69
2022/08/02 05:48:19;;;;;;;12.35;3.10;;;;;;;25.44;39.51;101569.72;5030127;28;99942;-69
2022/08/02 05:50:49;;;;;;;15.80;2.88;;;;;;;25.25;39.55;101573.13;5030237;27;97682;-70
2022/08/02 05:53:24;;;;;;;15.90;2.60;;;;;;;25.57;38.00;101579.41;5030369;28;97625;-71
2022/08/02 05:56:02;;;;;;;9.05;2.30;;;;;;;25.62;37.10;101584.41;5021810;27;98930;-70
2022/08/02 05:58:40;;;;;;;11.48;1.92;;;;;;;25.49;37.45;101583.72;5028762;28;97703;-70
2022/08/02 06:01:12;;;;;;;12.30;2.20;;;;;;;25.49;36.38;101584.56;5026925;28;97032;-69
2022/08/02 06:03:45;;;;;;;8.65;1.67;;;;;;;25.76;35.45;101584.97;5023668;28;97100;-69
2022/08/02 06:06:15;;;;;;;7.85;2.05;;;;;;;25.71;34.49;101587.22;5026679;28;99593;-69
2022/08/02 06:08:43;;;;;;;5.82;1.85;;;;;;;26.13;34.82;101590.72;5026158;27;99374;-70
2022/08/02 06:11:13;;;;;;;14.25;2.38;;;;;;;26.00;34.01;101583.81;5026965;28;97220;-70
2022/08/02 06:13:40;;;;;;;9.65;2.50;;;;;;;26.04;34.72;101596.97;5028611;28;98529;-70
2022/08/02 06:16:07;;;;;;;7.65;1.95;;;;;;;26.51;34.18;101583.81;5025621;28;99267;-69
2022/08/02 06:18:35;;;;;;;9.60;2.10;;;;;;;26.48;34.15;101584.09;5029912;28;97591;-70
2022/08/02 06:21:03;;;;;;;14.07;2.50;;;;;;;26.28;34.47;101591.28;5025474;28;96848;-70
2022/08/02 06:23:31;;;;;;;10.20;2.45;;;;;;;26.51;34.21;101589.25;5030579;28;96924;-70
2022/08/02 06:25:59;;;;;;;17.38;2.75;;;;;;;26.50;34.80;101582.09;5031437;27;98260;-70
2022/08/02 06:28:27;;;;;;;18.17;2.53;;;;;;;26.49;34.86;101589.38;5024947;28;99174;-69
2022/08/02 06:30:55;;;;;;;10.35;2.17;;;;;;;26.87;34.05;101580.50;5032748;28;97178;-70
2022/08/02 06:33:23;;;;;;;10.30;1.80;;;;;;;27.16;34.23;101577.88;5032695;28;96994;-70
2022/08/02 06:35:59;;;;;;;7.00;2.47;;;;;;;26.87;34.08;101585.06;5030781;28;99855;-70
2022/08/02 06:38:32;;;;;;;8.25;1.85;;;;;;;27.45;33.33;101587.84;5026579;28;100770;-70
2022/08/02 06:41:04;;;;;;;10.48;3.58;;;;;;;27.33;33.78;101579.00;5031801;28;96768;-68
2022/08/02 06:43:41;;;;;;;9.52;1.80;;;;;;;27.22;33.66;101573.72;5032444;28;97326;-70
2022/08/02 06:46:08;;;;;;;;;;;;;;;27.21;33.35;101578.28;5030693;28;98057;-70
2022/08/02 06:48:35;;;;;;;;;;;;;;;27.18;33.63;101575.84;5031721;27;98760;-70
2022/08/02 06:51:02;;;;;;;8.70;2.53;;;;;;;27.74;33.33;101564.31;5032236;27;96708;-71
2022/08/02 06:53:32;;;;;;;9.20;2.22;;;;;;;28.04;32.28;101566.78;5031612;28;96916;-70
2022/08/02 06:55:58;;;;;;;10.80;2.00;;;;;;;27.77;32.64;101574.84;5030163;28;99061;-70
2022/08/02 06:58:24;;;;;;;7.07;1.80;;;;;;;27.88;32.32;101582.84;5031269;28;101604;-70
2022/08/02 07:00:52;;;;;;;8.32;2.15;;;;;;;27.69;32.31;101569.31;5032542;28;97225;-71
2022/08/02 07:03:19;;;;;;;9.30;1.80;;;;;;;27.68;31.74;101571.19;5031626;28;96901;-71
2022/08/02 07:05:47;;;;;;;9.68;1.80;;;;;;;27.56;32.26;101571.47;5029934;28;99549;-70
2022/08/02 07:08:14;;;;;;;7.15;1.58;;;;;;;27.29;32.35;101566.75;5029880;28;98848;-69
2022/08/02 07:10:40;;;;;;;11.57;1.58;;;;;;;27.28;32.74;101557.75;5031678;28;96700;-70
2022/08/02 07:13:06;;;;;;;4.90;1.05;;;;;;;27.52;32.49;101557.31;5031514;27;97030;-70
2022/08/02 07:15:33;;;;;;;6.15;1.55;;;;;;;27.41;32.15;101567.44;5030080;28;99374;-70
2022/08/02 07:18:01;;;;;;;7.43;1.60;;;;;;;27.36;32.39;101571.47;5030490;28;99471;-69
2022/08/02 07:20:27;;;;;;;10.05;3.33;;;;;;;27.50;32.18;101572.03;5031487;27;97236;-69
2022/08/02 07:22:53;;;;;;;10.20;2.33;;;;;;;27.90;31.81;101564.53;5031700;27;96865;-69
2022/08/02 07:25:20;;;;;;;11.07;2.00;;;;;;;28.14;31.39;101564.09;5029804;28;98186;-70
2022/08/02 07:27:46;;;;;;;9.07;2.10;;;;;;;28.34;31.19;101564.88;5030570;27;98967;-71
2022/08/02 07:30:13;;;;;;;5.47;1.08;;;;;;;27.98;30.89;101561.94;5030984;28;96733;-70
2022/08/02 07:32:39;;;;;;;4.78;1.25;;;;;;;28.10;30.65;101565.34;5031537;27;97341;-70
2022/08/02 07:35:09;;;;;;;4.93;1.45;;;;;;;27.92;30.96;101561.69;5030158;27;98834;-70
2022/08/02 07:37:37;;;;;;;9.25;1.70;;;;;;;28.42;30.26;101559.53;5030257;28;99375;-70
2022/08/02 07:40:04;;;;;;;5.65;1.45;;;;;;;28.36;30.42;101557.41;5031326;28;97504;-70
2022/08/02 07:42:31;;;;;;;5.30;1.70;;;;;;;28.17;30.52;101563.78;5031221;28;97273;-70
2022/08/02 07:44:57;;;;;;;5.43;1.20;;;;;;;27.96;30.59;101566.66;5030755;28;99197;-70
2022/08/02 07:47:23;;;;;;;10.85;1.50;;;;;;;27.97;30.24;101565.66;5026998;28;98608;-70
2022/08/02 07:49:50;;;;;;;6.43;1.60;;;;;;;28.10;30.58;101555.31;5031441;28;96759;-70
2022/08/02 07:52:17;;;;;;;7.55;1.73;;;;;;;28.16;30.33;101550.38;5030824;27;96804;-70
2022/08/02 07:54:44;;;;;;;4.55;1.17;;;;;;;27.78;30.92;101557.56;5030460;28;98927;-69
2022/08/02 07:57:10;;;;;;;12.13;1.70;;;;;;;27.77;30.75;101550.41;5028598;28;99504;-70
2022/08/02 07:59:36;;;;;;;7.88;1.45;;;;;;;27.94;30.28;101546.09;5031131;28;96683;-71
2022/08/02 08:02:03;;;;;;;9.77;1.58;;;;;;;28.15;30.29;101546.78;5025213;27;97058;-70
2022/08/02 08:04:30;;;;;;;4.60;1.40;;;;;;;27.90;30.33;101564.53;5011906;27;98904;-71
2022/08/02 08:06:56;;;;;;;8.52;2.42;;;;;;;27.68;30.65;101560.31;5021391;27;98820;-71
2022/08/02 08:09:24;;;;;;;5.90;1.25;;;;;;;28.00;30.41;101565.38;5028008;28;97050;-71
2022/08/02 08:11:50;;;;;;;3.95;1.10;;;;;;;28.08;30.35;101562.78;5030592;27;97278;-70
2022/08/02 08:14:17;;;;;;;7.72;1.65;;;;;;;27.82;30.73;101550.00;5029285;27;101841;-68
2022/08/02 08:16:44;;;;;;;6.70;1.58;;;;;;;27.20;31.64;101544.03;5026349;27;99221;-68
2022/08/02 08:19:10;;;;;;;10.23;1.90;;;;;;;27.55;31.40;101545.31;5026821;27;97513;-68
2022/08/02 08:21:36;;;;;;;5.95;1.10;;;;;;;28.22;30.49;101542.47;5030753;28;96934;-71
2022/08/02 08:24:03;;;;;;;9.25;1.42;;;;;;;27.60;31.12;101546.59;5032343;27;98941;-67
2022/08/02 08:26:31;;;;;;;6.35;1.48;;;;;;;27.49;31.07;101546.72;5032381;28;98693;-67
2022/08/02 08:29:00;;;;;;;6.05;1.20;;;;;;;27.80;30.80;101541.13;5033730;27;96865;-68
2022/08/02 08:31:27;;;;;;;7.55;1.10;;;;;;;28.11;30.67;101538.03;5029573;28;96798;-67
2022/08/02 08:33:53;;;;;;;7.38;2.03;;;;;;;28.34;30.32;101540.41;5032124;27;102108;-67
2022/08/02 08:36:20;;;;;;;7.88;2.05;;;;;;;28.50;29.99;101535.16;5032816;28;97886;-69
2022/08/02 08:38:46;;;;;;;6.53;1.30;;;;;;;28.74;29.63;101537.31;5032821;27;96781;-69
2022/08/02 08:41:15;;;;;;;8.15;4.25;;;;;;;29.04;29.37;101539.72;5032712;28;96957;-68
2022/08/02 08:43:43;;;;;;;4.97;1.23;;;;;;;29.01;29.39;101540.03;5030494;27;99642;-68
2022/08/02 08:46:11;;;;;;;6.53;1.40;;;;;;;28.79;29.52;101537.75;5032113;27;99376;-69
2022/08/02 08:48:44;;;;;;;3.72;0.90;;;;;;;28.57;29.48;101529.97;5030794;27;96934;-68
2022/08/02 08:51:14;;;;;;;2.88;1.15;;;;;;;28.74;28.85;101530.06;5032173;27;97304;-68
2022/08/02 08:53:43;;;;;;;6.28;1.17;;;;;;;28.92;29.17;101536.38;5030123;27;98414;-67
2022/08/02 08:56:12;;;;;;;5.82;1.60;;;;;;;29.04;28.97;101537.00;5029195;27;98937;-68
2022/08/02 08:58:39;;;;;;;4.38;1.05;;;;;;;29.22;29.08;101534.25;5028075;27;96726;-68
2022/08/02 09:01:07;;;;;;;5.35;1.23;;;;;;;29.45;28.96;101537.41;5031196;27;96958;-67
2022/08/02 09:03:33;;;;;;;6.00;1.25;;;;;;;28.95;29.07;101529.75;5031536;28;99731;-68
2022/08/02 09:06:00;;;;;;;7.07;1.30;;;;;;;29.25;29.38;101532.09;5026723;27;99231;-70
2022/08/02 09:08:26;;;;;;;8.23;1.20;;;;;;;29.76;28.90;101529.63;5033355;28;97423;-70
2022/08/02 09:10:55;;;;;;;3.13;1.10;;;;;;;29.57;28.68;101536.13;5026403;28;97689;-70
2022/08/02 09:13:23;;;;;;;5.72;0.95;;;;;;;29.06;29.18;101525.97;5028890;27;99454;-70
2022/08/02 09:15:55;;;;;;;4.20;1.20;;;;;;;29.27;28.90;101527.34;5031809;28;102102;-69
2022/08/02 09:18:29;;;;;;;8.60;1.25;;;;;;;29.52;28.70;101525.72;5032263;27;97688;-69
2022/08/02 09:20:58;;;;;;;4.13;1.30;;;;;;;29.09;29.05;101529.22;5032938;27;97204;-71
2022/08/02 09:23:25;;;;;;;5.20;1.45;;;;;;;29.25;29.29;101531.25;5032684;28;99134;-69
2022/08/02 09:25:57;;;;;;;4.80;1.73;;;;;;;29.31;28.67;101517.00;5036743;27;98825;-70
2022/08/02 09:28:29;;;;;;;6.80;2.00;;;;;;;29.62;28.70;101509.25;5027946;28;98152;-70
2022/08/02 09:31:07;;;;;;;4.03;1.17;;;;;;;29.61;28.84;101516.56;5032728;27;97211;-70
2022/08/02 09:33:38;;;;;;;9.02;2.00;;;;;;;29.76;28.72;101518.72;5028082;28;98932;-70
2022/08/02 09:36:06;;;;;;;9.63;3.05;;;;;;;29.79;28.61;101510.25;5031350;27;101749;-69
2022/08/02 09:38:34;;;;;;;5.03;0.93;;;;;;;29.37;28.85;101518.25;5028957;28;96794;-69
2022/08/02 09:41:01;;;;;;;4.20;1.20;;;;;;;29.43;29.20;101512.19;5037380;27;97297;-69
2022/08/02 09:43:38;;;;;;;3.83;1.10;;;;;;;29.00;28.90;101510.25;5028157;28;99086;-70
2022/08/02 09:46:15;;;;;;;5.88;1.75;;;;;;;28.92;29.23;101509.16;5031792;27;98838;-70
2022/08/02 09:48:54;;;;;;;3.60;1.15;;;;;;;29.03;28.82;101507.22;5032242;27;96638;-70
2022/08/02 09:51:22;;;;;;;5.90;1.17;;;;;;;28.43;30.12;101505.00;5032608;28;97269;-70
2022/08/02 09:53:51;;;;;;;5.07;1.02;;;;;;;28.83;29.67;101503.78;5032405;27;102224;-70
2022/08/02 09:56:18;;;;;;;6.93;1.00;;;;;;;28.76;29.80;101500.81;5033183;28;99842;-70
2022/08/02 09:58:45;;;;;;;5.18;1.10;;;;;;;28.36;30.22;101503.03;5031467;28;97252;-70
2022/08/02 10:01:12;;;;;;;7.13;1.52;;;;;;;27.86;30.78;101503.38;5030049;27;97363;-70
2022/08/02 10:03:55;;;;;;;7.88;0.90;;;;;;;28.40;30.48;101496.31;5031537;28;101576;-70
2022/08/02 10:06:22;;;;;;;5.18;1.40;;;;;;;28.53;30.43;101504.97;5029060;27;98913;-69
2022/08/02 10:08:49;;;;;;;3.90;0.90;;;;;;;28.85;29.80;101505.34;5026358;28;97202;-69
2022/08/02 10:11:15;;;;;;;3.47;1.00;;;;;;;29.13;29.64;101510.72;5034398;27;96868;-69
2022/08/02 10:13:42;;;;;;;5.15;1.13;;;;;;;29.41;29.12;101514.19;5031441;28;98870;-70
2022/08/02 10:16:10;;;;;;;4.53;1.33;;;;;;;29.25;28.70;101520.34;5031661;27;98851;-70
2022/08/02 10:18:37;;;;;;;3.50;0.90;;;;;;;28.75;29.64;101517.31;5031382;28;96661;-70
2022/08/02 10:21:09;;;;;;;5.97;1.45;;;;;;;28.57;30.32;101516.38;5027632;27;97092;-70
2022/08/02 10:23:39;;;;;;;3.45;1.05;;;;;;;28.68;30.05;101522.47;5025125;28;99373;-70
2022/08/02 10:26:07;;;;;;;1.33;0.80;;;;;;;28.91;29.35;101512.88;5030885;27;97970;-69
2022/08/02 10:28:33;;;;;;;3.08;0.98;;;;;;;28.59;30.05;101506.22;5030850;28;97066;-70
2022/08/02 10:31:03;;;;;;;3.78;1.10;;;;;;;28.65;29.80;101517.34;5030635;28;97302;-70
2022/08/02 10:33:31;;;;;;;4.43;1.02;;;;;;;28.69;29.71;101521.44;5025939;28;101376;-70
2022/08/02 10:35:59;;;;;;;3.47;1.17;;;;;;;28.58;29.60;101518.94;5029829;28;98977;-70
2022/08/02 10:38:29;;;;;;;5.68;1.10;;;;;;;28.26;30.08;101508.53;5030459;27;96791;-72
2022/08/02 10:40:56;;;;;;;3.90;1.00;;;;;;;28.66;30.08;101516.34;5028404;28;97156;-70
2022/08/02 10:43:41;;;;;;;5.38;1.33;;;;;;;28.68;29.98;101514.31;5030465;28;98976;-70
2022/08/02 10:46:32;;;;;;;6.90;1.83;;;;;;;28.83;29.39;101510.06;5030335;28;97616;-70
2022/08/02 10:49:17;;;;;;;5.40;1.10;;;;;;;29.10;29.48;101520.03;5029500;28;97136;-70
2022/08/02 10:52:05;;;;;;;4.45;1.33;;;;;;;29.39;29.54;101497.19;5028563;28;96771;-70
2022/08/02 10:54:36;;;;;;;4.95;1.35;;;;;;;29.03;28.54;101491.75;5027720;28;100944;-69
2022/08/02 10:57:13;;;;;;;5.15;0.95;;;;;;;29.39;28.61;101486.31;5030637;27;99163;-71
2022/08/02 10:59:40;;;;;;;3.65;1.50;;;;;;;29.55;27.97;101465.47;5029084;28;97478;-70
2022/08/02 11:02:06;;;;;;;5.85;1.38;;;;;;;29.81;28.03;101462.75;5031227;27;96965;-70
2022/08/02 11:05:04;;;;;;;4.32;1.23;;;;;;;29.97;28.20;101462.00;5030367;28;98986;-70
2022/08/02 11:07:36;;;;;;;4.30;1.00;;;;;;;29.85;27.77;101466.00;5027382;27;98954;-70
2022/08/02 11:10:33;;;;;;;3.00;1.10;;;;;;;28.79;28.59;101464.31;5030081;27;96853;-70
2022/08/02 11:13:02;;;;;;;2.20;0.93;;;;;;;28.95;28.06;101469.06;5023573;27;97044;-70
2022/08/02 11:15:29;;;;;;;2.63;0.93;;;;;;;29.17;28.12;101465.84;5032374;27;98990;-70
2022/08/02 11:17:58;;;;;;;3.50;0.90;;;;;;;29.39;27.92;101461.81;5030086;28;99107;-71
2022/08/02 11:20:25;;;;;;;5.43;1.10;;;;;;;29.67;28.43;101457.88;5027443;28;96833;-69
2022/08/02 11:22:53;;;;;;;4.88;1.20;;;;;;;29.47;27.96;101459.97;5031296;28;97092;-70
2022/08/02 11:25:42;;;;;;;2.70;0.80;;;;;;;29.55;27.44;101440.97;5029803;27;98893;-70
2022/08/02 11:28:11;;;;;;;2.70;0.90;;;;;;;29.79;27.18;101439.41;5023602;27;99039;-69
2022/08/02 11:30:38;;;;;;;4.30;1.17;;;;;;;29.97;27.41;101440.22;5029342;28;97256;-70
2022/08/02 11:33:04;;;;;;;5.93;1.00;;;;;;;29.87;27.45;101439.44;5031144;27;96920;-70
2022/08/02 11:35:36;;;;;;;5.13;1.13;;;;;;;29.85;26.82;101449.66;5029523;27;99077;-70